KRAP/RAP METAR and TAF weather

Enter ICAO airport designator
Station Type Date Time Source
KRAP METAR 2019/06/16 04:52 UTC NOAA

KRAP 160452Z AUTO 31006KT 10SM CLR 12/09 A2997 RMK AO2 SLP136 T01170089


Station Type Date Time Source
KRAP Decoded METAR 2019/06/16 04:52 UTC NOAA

RAPID CITY REGIONAL AIRPORT , SD, United States (KRAP) 44-03N 103-03W 965M
Jun 16, 2019 - 12:52 AM EDT / 2019.06.16 0452 UTC
Wind: from the NW (310 degrees) at 7 MPH (6 KT):0
Visibility: 10 mile(s):0
Sky conditions: clear
Temperature: 53.1 F (11.7 C)
Dew Point: 48.0 F (8.9 C)
Relative Humidity: 82%
Pressure (altimeter): 29.97 in. Hg (1014 hPa)
ob: KRAP 160452Z AUTO 31006KT 10SM CLR 12/09 A2997 RMK AO2 SLP136 T01170089
cycle: 5

Station Type Date Time Source
KRAP TAF 2019/06/15 18:22 UTC NOAA

TAF KRAP 151720Z 1518/1618 34018G28KT P6SM SCT050 SCT200
FM160100 31008KT P6SM SCT200
FM161000 VRB06KT P6SM SCT050 BKN100

Example: see airport list